createdAt,value
2023-04-09T00:01:04.556Z,5.25
2023-04-09T00:03:34.953Z,7.40
2023-04-09T00:06:03.250Z,5.45
2023-04-09T00:08:31.413Z,6.38
2023-04-09T00:11:00.256Z,5.65
2023-04-09T00:13:37.943Z,6.32
2023-04-09T00:16:07.849Z,7.10
2023-04-09T00:18:37.369Z,5.68
2023-04-09T00:21:07.185Z,7.05
2023-04-09T00:23:35.960Z,6.57
2023-04-09T00:26:04.184Z,5.35
2023-04-09T00:28:32.267Z,6.80
2023-04-09T00:31:00.528Z,8.18
2023-04-09T00:33:28.702Z,8.35
2023-04-09T00:35:58.189Z,5.95
2023-04-09T00:38:26.279Z,5.15
2023-04-09T00:40:54.484Z,6.43
2023-04-09T00:43:23.167Z,5.20
2023-04-09T00:45:51.418Z,7.40
2023-04-09T00:48:19.648Z,4.85
2023-04-09T00:50:47.790Z,5.22
2023-04-09T00:53:17.525Z,5.88
2023-04-09T00:55:46.648Z,10.48
2023-04-09T00:58:14.989Z,7.07
2023-04-09T01:00:43.160Z,7.53
2023-04-09T01:03:11.513Z,9.27
2023-04-09T01:05:45.848Z,7.90
2023-04-09T01:08:28.794Z,6.22
2023-04-09T01:11:09.115Z,5.85
2023-04-09T01:13:48.726Z,5.78
2023-04-09T01:16:20.373Z,5.53
2023-04-09T01:18:53.858Z,7.43
2023-04-09T01:21:26.703Z,4.20
2023-04-09T01:24:07.054Z,5.33
2023-04-09T01:26:54.981Z,11.40
2023-04-09T01:29:31.601Z,7.55
2023-04-09T01:32:01.839Z,5.88
2023-04-09T01:34:31.820Z,6.70
2023-04-09T01:37:03.843Z,7.80
2023-04-09T01:39:32.464Z,6.05
2023-04-09T01:42:03.858Z,7.70
2023-04-09T01:44:34.142Z,7.85
2023-04-09T01:47:02.995Z,7.10
2023-04-09T01:49:32.216Z,5.97
2023-04-09T01:52:00.778Z,7.00
2023-04-09T01:54:28.844Z,7.25
2023-04-09T01:56:59.024Z,7.43
2023-04-09T01:59:27.205Z,9.02
2023-04-09T02:02:01.313Z,6.25
2023-04-09T02:04:34.385Z,5.32
2023-04-09T02:07:09.733Z,5.38
2023-04-09T02:09:41.497Z,6.90
2023-04-09T02:12:14.077Z,8.98
2023-04-09T02:14:43.191Z,8.30
2023-04-09T02:17:13.736Z,6.13
2023-04-09T02:19:43.208Z,6.28
2023-04-09T02:22:12.582Z,7.85
2023-04-09T02:24:41.592Z,4.82
2023-04-09T02:27:10.298Z,7.38
2023-04-09T02:29:40.313Z,6.47
2023-04-09T02:32:08.790Z,5.10
2023-04-09T02:34:38.317Z,8.13
2023-04-09T02:37:06.465Z,5.70
2023-04-09T02:39:34.855Z,7.72
2023-04-09T02:42:03.627Z,8.75
2023-04-09T02:44:31.755Z,9.38
2023-04-09T02:46:59.805Z,7.88
2023-04-09T02:49:27.956Z,6.50
2023-04-09T02:51:57.744Z,8.15
2023-04-09T02:54:25.936Z,9.93
2023-04-09T02:56:54.033Z,6.22
2023-04-09T02:59:22.105Z,6.13
2023-04-09T03:01:50.688Z,7.05
2023-04-09T03:04:19.137Z,4.80
2023-04-09T03:06:47.352Z,7.65
2023-04-09T03:09:16.770Z,4.78
2023-04-09T03:11:44.907Z,5.97
2023-04-09T03:14:13.127Z,5.63
2023-04-09T03:16:41.233Z,5.90
2023-04-09T03:19:09.450Z,7.90
2023-04-09T03:21:38.567Z,10.10
2023-04-09T03:24:07.339Z,10.75
2023-04-09T03:26:38.044Z,7.28
2023-04-09T03:29:08.289Z,10.52
2023-04-09T03:31:36.312Z,11.23
2023-04-09T03:34:04.632Z,8.75
2023-04-09T03:36:34.214Z,8.10
2023-04-09T03:39:04.498Z,7.35
2023-04-09T03:41:39.465Z,8.60
2023-04-09T03:44:12.020Z,11.07
2023-04-09T03:46:55.355Z,6.07
2023-04-09T03:49:23.951Z,11.13
2023-04-09T03:51:52.149Z,9.82
2023-04-09T03:54:21.279Z,8.10
2023-04-09T03:56:51.278Z,5.88
2023-04-09T03:59:24.097Z,9.20
2023-04-09T04:01:53.189Z,8.45
2023-04-09T04:04:23.800Z,9.50
2023-04-09T04:06:56.735Z,9.80
2023-04-09T04:09:34.170Z,11.23
2023-04-09T04:12:08.358Z,11.10
2023-04-09T04:14:51.305Z,7.55
2023-04-09T04:17:26.257Z,9.15
2023-04-09T04:19:56.414Z,9.38
2023-04-09T04:22:26.380Z,9.48
2023-04-09T04:24:59.314Z,8.30
2023-04-09T04:27:28.819Z,8.93
2023-04-09T04:30:00.174Z,7.80
2023-04-09T04:32:42.017Z,8.90
2023-04-09T04:35:12.669Z,7.25
2023-04-09T04:37:42.346Z,10.57
2023-04-09T04:40:11.210Z,10.18
2023-04-09T04:42:44.414Z,9.43
2023-04-09T04:45:16.499Z,8.65
2023-04-09T04:47:49.683Z,7.18
2023-04-09T04:50:17.978Z,7.00
2023-04-09T04:52:56.059Z,10.57
2023-04-09T04:55:28.075Z,6.32
2023-04-09T04:57:57.498Z,5.95
2023-04-09T05:00:29.533Z,6.30
2023-04-09T05:03:02.371Z,6.60
2023-04-09T05:05:46.579Z,6.10
2023-04-09T05:08:14.936Z,5.70
2023-04-09T05:10:44.705Z,7.63
2023-04-09T05:13:15.558Z,7.18
2023-04-09T05:15:43.719Z,6.32
2023-04-09T05:18:12.277Z,4.90
2023-04-09T05:20:41.244Z,6.13
2023-04-09T05:23:12.577Z,6.03
2023-04-09T05:25:44.401Z,6.78
2023-04-09T05:28:25.061Z,5.90
2023-04-09T05:31:03.999Z,6.35
2023-04-09T05:33:38.290Z,8.27
2023-04-09T05:36:16.794Z,11.13
2023-04-09T05:38:45.167Z,12.02
2023-04-09T05:41:13.284Z,13.10
2023-04-09T05:43:52.554Z,10.93
2023-04-09T05:46:21.633Z,11.38
2023-04-09T05:48:51.408Z,18.55
2023-04-09T05:51:19.868Z,15.07
2023-04-09T05:53:48.173Z,12.30
2023-04-09T05:56:17.201Z,17.60
2023-04-09T05:58:54.184Z,20.27
2023-04-09T06:01:22.288Z,14.60
2023-04-09T06:03:51.319Z,19.75
2023-04-09T06:06:20.067Z,22.50
2023-04-09T06:08:48.130Z,13.80
2023-04-09T06:11:16.245Z,14.38
2023-04-09T06:13:45.687Z,18.27
2023-04-09T06:16:16.212Z,22.23
2023-04-09T06:18:46.772Z,18.52
2023-04-09T06:21:14.881Z,16.85
2023-04-09T06:23:43.035Z,18.23
2023-04-09T06:26:11.060Z,17.13
2023-04-09T06:28:39.156Z,23.92
2023-04-09T06:31:07.266Z,16.70
2023-04-09T06:33:36.687Z,22.60
2023-04-09T06:36:04.940Z,21.70
2023-04-09T06:38:33.170Z,25.50
2023-04-09T06:41:01.269Z,24.98
2023-04-09T06:43:29.387Z,22.52
2023-04-09T06:45:57.467Z,21.08
2023-04-09T06:48:25.705Z,15.88
2023-04-09T06:50:55.053Z,28.27
2023-04-09T06:53:23.212Z,22.70
2023-04-09T06:55:51.394Z,21.48
2023-04-09T06:58:21.026Z,17.85
2023-04-09T07:00:49.126Z,22.92
2023-04-09T07:03:17.409Z,36.50
2023-04-09T07:05:45.574Z,28.10
2023-04-09T07:08:15.205Z,17.70
2023-04-09T07:10:43.293Z,30.95
2023-04-09T07:13:11.718Z,25.08
2023-04-09T07:15:40.619Z,27.83
2023-04-09T07:18:10.734Z,19.95
2023-04-09T07:20:38.780Z,21.25
2023-04-09T07:23:06.961Z,25.00
2023-04-09T07:25:36.466Z,27.63
2023-04-09T07:28:04.714Z,26.50
2023-04-09T07:30:32.966Z,35.25
2023-04-09T07:33:01.142Z,24.67
2023-04-09T07:35:29.283Z,24.60
2023-04-09T07:37:58.932Z,23.23
2023-04-09T07:40:27.157Z,21.90
2023-04-09T07:42:58.142Z,30.08
2023-04-09T07:45:26.645Z,34.50
2023-04-09T07:47:54.764Z,24.38
2023-04-09T07:50:23.186Z,24.30
2023-04-09T07:52:51.443Z,22.98
2023-04-09T07:55:20.277Z,24.50
2023-04-09T07:57:48.557Z,23.27
2023-04-09T08:00:19.008Z,21.70
2023-04-09T08:02:47.489Z,27.45
2023-04-09T08:05:15.722Z,23.75
2023-04-09T08:07:43.917Z,21.42
2023-04-09T08:10:15.236Z,25.95
2023-04-09T08:12:43.570Z,21.15
2023-04-09T08:15:12.086Z,34.47
2023-04-09T08:17:41.554Z,20.50
2023-04-09T08:20:10.427Z,23.42
2023-04-09T08:22:38.563Z,24.45
2023-04-09T08:25:07.366Z,28.25
2023-04-09T08:27:36.182Z,18.70
2023-04-09T08:30:04.976Z,30.15
2023-04-09T08:32:33.225Z,22.05
2023-04-09T08:35:02.662Z,28.50
2023-04-09T08:37:30.776Z,31.05
2023-04-09T08:40:00.066Z,26.77
2023-04-09T08:42:28.925Z,27.55
2023-04-09T08:44:57.009Z,28.42
2023-04-09T08:47:25.580Z,25.75
2023-04-09T08:49:54.286Z,27.67
2023-04-09T08:52:33.326Z,26.30
2023-04-09T08:55:01.896Z,25.35
2023-04-09T08:57:30.049Z,21.77
2023-04-09T08:59:58.915Z,26.55
2023-04-09T09:02:27.156Z,25.90
2023-04-09T09:05:00.776Z,20.40
2023-04-09T09:07:30.802Z,25.38
2023-04-09T09:10:00.286Z,23.45
2023-04-09T09:12:33.077Z,21.13
2023-04-09T09:15:01.249Z,25.52
2023-04-09T09:17:30.603Z,28.73
2023-04-09T09:19:58.855Z,17.80
2023-04-09T09:22:27.094Z,17.52
2023-04-09T09:24:57.494Z,22.65
2023-04-09T09:27:44.359Z,22.70
2023-04-09T09:30:22.841Z,17.67
2023-04-09T09:32:53.941Z,17.40
2023-04-09T09:35:23.554Z,14.73
2023-04-09T09:38:03.960Z,21.45
2023-04-09T09:40:33.698Z,21.08
2023-04-09T09:43:01.842Z,23.55
2023-04-09T09:45:31.458Z,19.08
2023-04-09T09:47:59.670Z,19.02
2023-04-09T09:50:31.797Z,20.20
2023-04-09T09:53:04.725Z,25.85
2023-04-09T09:55:35.791Z,22.00
2023-04-09T09:58:12.061Z,15.05
2023-04-09T10:00:41.880Z,25.50
2023-04-09T10:03:17.134Z,26.23
2023-04-09T10:05:46.468Z,26.85
2023-04-09T10:08:14.539Z,28.15
2023-04-09T10:10:44.449Z,18.10
2023-04-09T10:13:21.783Z,22.05
2023-04-09T10:15:50.721Z,28.30
2023-04-09T10:18:19.860Z,21.30
2023-04-09T10:20:52.604Z,24.48
2023-04-09T10:23:28.736Z,30.33
2023-04-09T10:25:58.678Z,27.77
2023-04-09T10:28:27.340Z,30.63
2023-04-09T10:30:56.443Z,27.92
2023-04-09T10:33:27.797Z,22.27
2023-04-09T10:35:58.534Z,23.60
2023-04-09T10:38:46.990Z,23.40
2023-04-09T10:41:23.325Z,30.08
2023-04-09T10:43:51.727Z,25.83
2023-04-09T10:46:38.692Z,27.92
2023-04-09T10:49:11.319Z,26.17
2023-04-09T10:51:40.029Z,20.10
2023-04-09T10:54:28.633Z,22.10
2023-04-09T10:57:17.956Z,22.13
2023-04-09T10:59:47.824Z,21.08
2023-04-09T11:03:01.737Z,24.70
2023-04-09T11:05:34.049Z,23.63
2023-04-09T11:08:07.157Z,28.60
2023-04-09T11:10:35.700Z,22.85
2023-04-09T11:13:05.444Z,19.92
2023-04-09T11:15:36.118Z,27.35
2023-04-09T11:18:06.836Z,25.77
2023-04-09T11:20:35.755Z,21.17
2023-04-09T11:23:04.263Z,26.75
2023-04-09T11:25:33.986Z,22.88
2023-04-09T11:28:06.179Z,22.35
2023-04-09T11:30:35.690Z,24.20
2023-04-09T11:33:04.006Z,21.38
2023-04-09T11:35:35.282Z,25.33
2023-04-09T11:38:07.722Z,27.38
2023-04-09T11:40:36.021Z,21.65
2023-04-09T11:43:06.061Z,20.73
2023-04-09T11:45:34.282Z,25.25
2023-04-09T11:48:03.712Z,21.20
2023-04-09T11:50:33.471Z,18.20
2023-04-09T11:53:01.719Z,18.92
2023-04-09T11:55:30.830Z,19.75
2023-04-09T11:58:01.241Z,25.60
2023-04-09T12:00:30.921Z,23.35
2023-04-09T12:03:03.076Z,24.42
2023-04-09T12:05:33.642Z,16.77
2023-04-09T12:08:05.004Z,19.42
2023-04-09T12:10:35.525Z,24.23
2023-04-09T12:13:04.854Z,21.83
2023-04-09T12:15:35.982Z,24.05
2023-04-09T12:18:04.857Z,18.67
2023-04-09T12:20:35.934Z,21.88
2023-04-09T12:23:05.863Z,25.88
2023-04-09T12:25:36.747Z,20.45
2023-04-09T12:28:05.787Z,26.23
2023-04-09T12:30:36.089Z,21.33
2023-04-09T12:33:05.160Z,20.88
2023-04-09T12:35:34.499Z,19.02
2023-04-09T12:38:02.794Z,24.10
2023-04-09T12:40:31.217Z,18.42
2023-04-09T12:42:59.470Z,20.33
2023-04-09T12:45:28.066Z,23.52
2023-04-09T12:47:58.045Z,21.90
2023-04-09T12:50:26.403Z,18.52
2023-04-09T12:52:54.504Z,15.85
2023-04-09T12:55:23.122Z,26.33
2023-04-09T12:57:52.095Z,17.65
2023-04-09T13:00:20.205Z,20.08
2023-04-09T13:02:48.512Z,18.63
2023-04-09T13:05:18.034Z,19.15
2023-04-09T13:07:46.792Z,17.23
2023-04-09T13:10:14.867Z,14.88
2023-04-09T13:12:43.055Z,14.02
2023-04-09T13:15:11.820Z,13.98
2023-04-09T13:17:39.906Z,10.23
2023-04-09T13:20:09.055Z,9.50
2023-04-09T13:22:38.530Z,16.13
2023-04-09T13:25:06.973Z,13.88
2023-04-09T13:27:35.146Z,17.17
2023-04-09T13:30:03.880Z,17.10
2023-04-09T13:32:32.082Z,15.18
2023-04-09T13:35:00.482Z,12.10
2023-04-09T13:37:28.646Z,13.65
2023-04-09T13:39:58.007Z,11.35
2023-04-09T13:42:26.168Z,10.43
2023-04-09T13:44:54.485Z,14.70
2023-04-09T13:47:23.927Z,12.90
2023-04-09T13:49:53.113Z,10.43
2023-04-09T13:52:21.316Z,10.95
2023-04-09T13:54:49.565Z,9.52
2023-04-09T13:57:18.992Z,12.75
2023-04-09T13:59:47.112Z,9.18
2023-04-09T14:02:15.603Z,11.35
2023-04-09T14:04:43.821Z,9.55
2023-04-09T14:07:12.015Z,10.05
2023-04-09T14:09:40.555Z,9.90
2023-04-09T14:12:08.652Z,9.18
2023-04-09T14:14:38.030Z,11.85
2023-04-09T14:17:06.120Z,8.00
2023-04-09T14:19:34.194Z,8.88
2023-04-09T14:22:02.451Z,10.98
2023-04-09T14:24:30.510Z,11.18
2023-04-09T14:26:59.533Z,10.20
2023-04-09T14:29:27.652Z,7.15
2023-04-09T14:31:57.367Z,10.25
2023-04-09T14:34:25.551Z,10.27
2023-04-09T14:36:53.689Z,9.10
2023-04-09T14:39:21.902Z,8.00
2023-04-09T14:41:50.072Z,5.22
2023-04-09T14:44:18.100Z,7.20
2023-04-09T14:46:46.252Z,9.95
2023-04-09T14:49:15.654Z,6.97
2023-04-09T14:51:43.848Z,7.60
2023-04-09T14:54:11.966Z,10.90
2023-04-09T14:56:40.113Z,7.82
2023-04-09T14:59:08.187Z,6.07
2023-04-09T15:01:36.477Z,6.82
2023-04-09T15:04:04.710Z,6.47
2023-04-09T15:06:34.205Z,8.10
2023-04-09T15:09:02.329Z,6.50
2023-04-09T15:11:30.606Z,7.95
2023-04-09T15:13:58.898Z,10.73
2023-04-09T15:16:28.699Z,5.80
2023-04-09T15:18:59.117Z,6.88
2023-04-09T15:21:27.881Z,9.20
2023-04-09T15:23:58.987Z,6.63
2023-04-09T15:26:27.881Z,4.35
2023-04-09T15:29:04.072Z,2.47
2023-04-09T15:31:33.094Z,2.78
2023-04-09T15:34:01.613Z,4.07
2023-04-09T15:36:31.579Z,3.17
2023-04-09T15:39:01.223Z,3.33
2023-04-09T15:41:32.117Z,5.47
2023-04-09T15:44:00.471Z,2.80
2023-04-09T15:46:28.648Z,5.43
2023-04-09T15:48:56.842Z,3.97
2023-04-09T15:51:24.889Z,4.00
2023-04-09T15:53:53.048Z,3.15
2023-04-09T15:56:22.442Z,4.40
2023-04-09T15:58:50.789Z,5.80
2023-04-09T16:01:19.538Z,4.80
2023-04-09T16:03:52.114Z,4.95
2023-04-09T16:06:21.157Z,3.55
2023-04-09T16:08:49.326Z,12.52
2023-04-09T16:11:17.731Z,6.45
2023-04-09T16:13:47.784Z,5.45
2023-04-09T16:16:16.160Z,4.68
2023-04-09T16:18:44.217Z,7.07
2023-04-09T16:21:12.565Z,7.82
2023-04-09T16:23:40.965Z,7.47
2023-04-09T16:26:09.334Z,8.38
2023-04-09T16:28:37.845Z,10.40
2023-04-09T16:31:07.556Z,7.00
2023-04-09T16:33:35.693Z,4.93
2023-04-09T16:36:03.865Z,4.25
2023-04-09T16:38:34.081Z,3.70
2023-04-09T16:41:03.464Z,3.72
2023-04-09T16:43:34.574Z,6.85
2023-04-09T16:46:03.201Z,5.28
2023-04-09T16:48:32.573Z,4.43
2023-04-09T16:51:00.950Z,3.20
2023-04-09T16:53:28.985Z,3.25
2023-04-09T16:55:57.556Z,8.15
2023-04-09T16:58:25.699Z,4.57
2023-04-09T17:00:54.315Z,5.18
2023-04-09T17:03:24.007Z,3.45
2023-04-09T17:05:54.872Z,4.25
2023-04-09T17:08:25.850Z,5.88
2023-04-09T17:11:02.713Z,5.32
2023-04-09T17:13:34.219Z,7.55
2023-04-09T17:16:02.574Z,6.25
2023-04-09T17:18:30.945Z,10.50
2023-04-09T17:21:00.456Z,6.25
2023-04-09T17:23:28.625Z,8.07
2023-04-09T17:25:56.941Z,6.82
2023-04-09T17:28:25.058Z,8.48
2023-04-09T17:30:53.151Z,11.73
2023-04-09T17:33:21.285Z,10.70
2023-04-09T17:35:49.449Z,9.45
2023-04-09T17:38:21.376Z,10.02
2023-04-09T17:40:49.791Z,8.43
2023-04-09T17:43:18.346Z,11.25
2023-04-09T17:45:46.362Z,10.52
2023-04-09T17:48:14.552Z,9.48
2023-04-09T17:50:42.604Z,8.55
2023-04-09T17:53:10.775Z,8.05
2023-04-09T17:55:40.154Z,7.50
2023-04-09T17:58:08.238Z,8.95
2023-04-09T18:00:36.335Z,8.60
2023-04-09T18:03:05.291Z,10.52
2023-04-09T18:05:35.259Z,9.98
2023-04-09T18:08:03.892Z,10.60
2023-04-09T18:10:32.458Z,9.13
2023-04-09T18:13:01.898Z,9.10
2023-04-09T18:15:32.765Z,11.70
2023-04-09T18:18:01.225Z,10.30
2023-04-09T18:20:29.512Z,9.00
2023-04-09T18:22:57.683Z,10.90
2023-04-09T18:25:25.833Z,8.35
2023-04-09T18:27:53.998Z,10.60
2023-04-09T18:30:23.447Z,9.02
2023-04-09T18:32:52.383Z,7.70
2023-04-09T18:35:20.947Z,7.32
2023-04-09T18:37:49.135Z,7.72
2023-04-09T18:40:18.642Z,8.80
2023-04-09T18:42:51.783Z,8.52
2023-04-09T18:45:20.170Z,10.52
2023-04-09T18:47:49.729Z,10.93
2023-04-09T18:50:18.971Z,9.60
2023-04-09T18:52:47.277Z,10.60
2023-04-09T18:55:16.366Z,12.43
2023-04-09T18:57:44.861Z,8.75
2023-04-09T19:00:13.623Z,7.35
2023-04-09T19:02:42.927Z,10.75
2023-04-09T19:05:12.778Z,10.13
2023-04-09T19:07:41.137Z,12.68
2023-04-09T19:10:09.682Z,9.45
2023-04-09T19:12:38.410Z,12.00
2023-04-09T19:15:07.012Z,10.57
2023-04-09T19:17:35.172Z,10.75
2023-04-09T19:20:04.460Z,12.20
2023-04-09T19:22:33.802Z,9.82
2023-04-09T19:25:02.057Z,13.32
2023-04-09T19:27:30.230Z,13.63
2023-04-09T19:29:59.956Z,9.80
2023-04-09T19:32:28.135Z,10.80
2023-04-09T19:34:56.319Z,6.32
2023-04-09T19:37:27.528Z,10.43
2023-04-09T19:39:58.598Z,8.80
2023-04-09T19:42:28.632Z,8.45
2023-04-09T19:44:56.806Z,8.43
2023-04-09T19:47:24.985Z,11.25
2023-04-09T19:49:53.572Z,8.40
2023-04-09T19:52:21.988Z,6.60
2023-04-09T19:54:56.475Z,7.35
2023-04-09T19:57:26.391Z,9.07
2023-04-09T19:59:55.129Z,10.95
2023-04-09T20:02:23.961Z,10.73
2023-04-09T20:04:52.403Z,8.98
2023-04-09T20:07:20.551Z,7.80
2023-04-09T20:09:49.685Z,11.25
2023-04-09T20:12:21.688Z,10.30
2023-04-09T20:14:50.373Z,11.63
2023-04-09T20:17:19.908Z,10.20
2023-04-09T20:19:48.084Z,12.55
2023-04-09T20:22:16.245Z,13.02
2023-04-09T20:24:44.423Z,10.20
2023-04-09T20:27:12.803Z,11.07
2023-04-09T20:29:43.128Z,9.23
2023-04-09T20:32:11.331Z,9.95
2023-04-09T20:34:39.902Z,8.07
2023-04-09T20:37:08.262Z,9.98
2023-04-09T20:39:36.563Z,11.68
2023-04-09T20:42:05.360Z,9.82
2023-04-09T20:44:33.945Z,12.55
2023-04-09T20:47:03.691Z,11.30
2023-04-09T20:49:31.713Z,9.40
2023-04-09T20:51:59.819Z,11.48
2023-04-09T20:54:29.419Z,10.63
2023-04-09T20:56:57.875Z,11.20
2023-04-09T20:59:26.397Z,11.50
2023-04-09T21:01:55.531Z,10.52
2023-04-09T21:04:25.576Z,12.38
2023-04-09T21:06:53.891Z,9.43
2023-04-09T21:09:22.768Z,14.38
2023-04-09T21:11:50.973Z,11.30
2023-04-09T21:14:19.077Z,10.35
2023-04-09T21:16:47.532Z,9.13
2023-04-09T21:19:15.714Z,7.53
2023-04-09T21:21:46.227Z,9.73
2023-04-09T21:24:14.472Z,9.77
2023-04-09T21:26:50.986Z,11.80
2023-04-09T21:29:20.784Z,7.30
2023-04-09T21:31:49.639Z,8.75
2023-04-09T21:34:17.930Z,11.57
2023-04-09T21:36:47.453Z,12.05
2023-04-09T21:39:15.641Z,11.25
2023-04-09T21:41:43.671Z,13.43
2023-04-09T21:44:11.784Z,12.68
2023-04-09T21:46:40.885Z,12.50
2023-04-09T21:49:09.178Z,11.07
2023-04-09T21:51:37.596Z,12.27
2023-04-09T21:54:08.024Z,12.50
2023-04-09T21:56:37.175Z,14.50
2023-04-09T21:59:06.254Z,14.73
2023-04-09T22:01:35.455Z,11.68
2023-04-09T22:04:04.128Z,11.70
2023-04-09T22:06:32.656Z,11.98
2023-04-09T22:09:01.823Z,14.73
2023-04-09T22:11:31.616Z,11.68
2023-04-09T22:13:59.784Z,10.02
2023-04-09T22:16:28.045Z,11.85
2023-04-09T22:18:56.901Z,10.32
2023-04-09T22:21:26.038Z,10.93
2023-04-09T22:23:54.098Z,12.20
2023-04-09T22:26:22.663Z,8.80
2023-04-09T22:28:52.491Z,10.65
2023-04-09T22:31:21.568Z,9.70
2023-04-09T22:33:49.691Z,10.73
2023-04-09T22:36:17.891Z,9.90
2023-04-09T22:38:46.183Z,11.07
2023-04-09T22:41:15.985Z,11.55
2023-04-09T22:43:44.065Z,11.00
2023-04-09T22:46:13.469Z,11.63
2023-04-09T22:48:44.758Z,11.45
2023-04-09T22:51:14.549Z,9.85
2023-04-09T22:53:42.710Z,10.40
2023-04-09T22:56:10.950Z,11.02
2023-04-09T22:58:39.134Z,9.13
2023-04-09T23:01:07.799Z,11.13
2023-04-09T23:03:37.255Z,10.57
2023-04-09T23:06:05.727Z,13.45
2023-04-09T23:08:33.786Z,12.70
2023-04-09T23:11:01.828Z,15.90
2023-04-09T23:13:29.927Z,11.55
2023-04-09T23:15:58.060Z,12.27
2023-04-09T23:18:26.156Z,14.00
2023-04-09T23:20:55.735Z,10.93
2023-04-09T23:23:23.800Z,12.05
2023-04-09T23:25:52.557Z,12.48
2023-04-09T23:28:20.646Z,10.40
2023-04-09T23:30:48.771Z,13.05
2023-04-09T23:33:16.853Z,11.45
2023-04-09T23:35:45.094Z,11.70
2023-04-09T23:38:15.165Z,10.32
2023-04-09T23:40:43.348Z,11.82
2023-04-09T23:43:11.543Z,12.45
2023-04-09T23:45:39.625Z,10.80
2023-04-09T23:48:09.012Z,10.18
2023-04-09T23:50:39.460Z,10.10
2023-04-09T23:53:07.702Z,12.13
2023-04-09T23:55:40.848Z,12.05
2023-04-09T23:58:09.813Z,14.50
